sensor_id;sensor_type;location;lat;lon;timestamp;pressure;altitude;pressure_sealevel;temperature;humidity
3254;BME280;1639;42.804;23.342;2022-08-19T00:01:12;71855.59;;;-148.52;64.89
3254;BME280;1639;42.804;23.342;2022-08-19T00:03:37;71824.59;;;-148.52;63.99
3254;BME280;1639;42.804;23.342;2022-08-19T00:06:03;71808.06;;;-148.52;62.86
3254;BME280;1639;42.804;23.342;2022-08-19T00:08:28;71793.59;;;-148.52;62.40
3254;BME280;1639;42.804;23.342;2022-08-19T00:10:54;71783.25;;;-148.52;61.91
3254;BME280;1639;42.804;23.342;2022-08-19T00:13:19;71772.91;;;-148.52;61.84
3254;BME280;1639;42.804;23.342;2022-08-19T00:15:44;71772.91;;;-148.52;61.47
3254;BME280;1639;42.804;23.342;2022-08-19T00:18:10;71795.66;;;-148.52;60.91
3254;BME280;1639;42.804;23.342;2022-08-19T00:20:36;71837.00;;;-148.52;61.80
3254;BME280;1639;42.804;23.342;2022-08-19T00:23:06;71839.06;;;-148.52;62.08
3254;BME280;1639;42.804;23.342;2022-08-19T00:25:32;71851.47;;;-148.52;62.25
3254;BME280;1639;42.804;23.342;2022-08-19T00:27:57;71826.66;;;-148.52;62.00
3254;BME280;1639;42.804;23.342;2022-08-19T00:30:24;71810.13;;;-148.52;61.42
3254;BME280;1639;42.804;23.342;2022-08-19T00:32:49;71791.50;;;-148.52;60.50
3254;BME280;1639;42.804;23.342;2022-08-19T00:35:15;71772.91;;;-148.52;59.78
3254;BME280;1639;42.804;23.342;2022-08-19T00:37:41;71793.59;;;-148.52;60.15
3254;BME280;1639;42.804;23.342;2022-08-19T00:40:10;71806.00;;;-148.52;60.66
3254;BME280;1639;42.804;23.342;2022-08-19T00:42:36;71832.88;;;-148.52;61.03
3254;BME280;1639;42.804;23.342;2022-08-19T00:45:10;71830.81;;;-148.52;61.25
3254;BME280;1639;42.804;23.342;2022-08-19T00:47:35;71830.81;;;-148.52;61.44
3254;BME280;1639;42.804;23.342;2022-08-19T00:50:01;71830.81;;;-148.52;61.50
3254;BME280;1639;42.804;23.342;2022-08-19T00:52:31;71839.06;;;-148.52;62.02
3254;BME280;1639;42.804;23.342;2022-08-19T00:54:58;71822.53;;;-148.52;61.18
3254;BME280;1639;42.804;23.342;2022-08-19T00:57:29;71845.28;;;-148.52;62.05
3254;BME280;1639;42.804;23.342;2022-08-19T00:59:56;71849.41;;;-148.52;61.92
3254;BME280;1639;42.804;23.342;2022-08-19T01:02:23;71847.34;;;-148.52;61.99
3254;BME280;1639;42.804;23.342;2022-08-19T01:04:49;71845.28;;;-148.52;62.00
3254;BME280;1639;42.804;23.342;2022-08-19T01:07:15;71843.19;;;-148.52;61.95
3254;BME280;1639;42.804;23.342;2022-08-19T01:09:41;71843.19;;;-148.52;61.86
3254;BME280;1639;42.804;23.342;2022-08-19T01:12:08;71876.28;;;-148.52;62.72
3254;BME280;1639;42.804;23.342;2022-08-19T01:14:34;71876.28;;;-148.52;62.70
3254;BME280;1639;42.804;23.342;2022-08-19T01:17:00;71878.34;;;-148.52;62.72
3254;BME280;1639;42.804;23.342;2022-08-19T01:19:29;71872.16;;;-148.52;62.80
3254;BME280;1639;42.804;23.342;2022-08-19T01:22:02;71859.75;;;-148.52;62.25
3254;BME280;1639;42.804;23.342;2022-08-19T01:24:28;71857.69;;;-148.52;62.28
3254;BME280;1639;42.804;23.342;2022-08-19T01:26:56;71880.41;;;-148.52;62.96
3254;BME280;1639;42.804;23.342;2022-08-19T01:29:21;71880.41;;;-148.52;62.96
3254;BME280;1639;42.804;23.342;2022-08-19T01:31:46;71892.81;;;-148.52;63.32
3254;BME280;1639;42.804;23.342;2022-08-19T01:34:12;71886.63;;;-148.52;63.40
3254;BME280;1639;42.804;23.342;2022-08-19T01:36:43;71888.69;;;-148.52;63.39
3254;BME280;1639;42.804;23.342;2022-08-19T01:39:13;71907.31;;;-148.52;63.99
3254;BME280;1639;42.804;23.342;2022-08-19T01:41:39;71907.31;;;-148.52;64.00
3254;BME280;1639;42.804;23.342;2022-08-19T01:44:06;71888.69;;;-148.52;63.41
3254;BME280;1639;42.804;23.342;2022-08-19T01:46:32;71892.81;;;-148.52;63.36
3254;BME280;1639;42.804;23.342;2022-08-19T01:48:58;71870.09;;;-148.52;62.30
3254;BME280;1639;42.804;23.342;2022-08-19T01:51:23;71888.69;;;-148.52;62.42
3254;BME280;1639;42.804;23.342;2022-08-19T01:53:50;71888.69;;;-148.52;62.32
3254;BME280;1639;42.804;23.342;2022-08-19T01:56:17;71890.75;;;-148.52;62.82
3254;BME280;1639;42.804;23.342;2022-08-19T01:58:49;71892.81;;;-148.52;62.99
3254;BME280;1639;42.804;23.342;2022-08-19T02:01:17;71888.69;;;-148.52;62.65
3254;BME280;1639;42.804;23.342;2022-08-19T02:03:43;71907.31;;;-148.52;63.17
3254;BME280;1639;42.804;23.342;2022-08-19T02:06:08;71917.63;;;-148.52;64.01
3254;BME280;1639;42.804;23.342;2022-08-19T02:08:36;71925.91;;;-148.52;65.40
3254;BME280;1639;42.804;23.342;2022-08-19T02:11:03;71932.13;;;-148.52;65.90
3254;BME280;1639;42.804;23.342;2022-08-19T02:13:28;71940.38;;;-148.52;65.95
3254;BME280;1639;42.804;23.342;2022-08-19T02:15:54;71917.63;;;-148.52;64.92
3254;BME280;1639;42.804;23.342;2022-08-19T02:18:20;71905.22;;;-148.52;64.22
3254;BME280;1639;42.804;23.342;2022-08-19T02:20:45;71938.31;;;-148.52;64.36
3254;BME280;1639;42.804;23.342;2022-08-19T02:23:13;71961.06;;;-148.52;65.39
3254;BME280;1639;42.804;23.342;2022-08-19T02:25:40;71959.00;;;-148.52;65.02
3254;BME280;1639;42.804;23.342;2022-08-19T02:28:05;71961.06;;;-148.52;65.09
3254;BME280;1639;42.804;23.342;2022-08-19T02:30:31;71979.66;;;-148.52;65.87
3254;BME280;1639;42.804;23.342;2022-08-19T02:32:56;71990.00;;;-148.52;66.19
3254;BME280;1639;42.804;23.342;2022-08-19T02:35:23;71975.53;;;-148.52;65.86
3254;BME280;1639;42.804;23.342;2022-08-19T02:37:48;71983.81;;;-148.52;66.44
3254;BME280;1639;42.804;23.342;2022-08-19T02:40:33;72018.94;;;-148.52;67.74
3254;BME280;1639;42.804;23.342;2022-08-19T02:43:04;72014.81;;;-148.52;67.85
3254;BME280;1639;42.804;23.342;2022-08-19T02:45:34;72004.47;;;-148.52;67.40
3254;BME280;1639;42.804;23.342;2022-08-19T02:48:00;72027.22;;;-148.52;68.17
3254;BME280;1639;42.804;23.342;2022-08-19T02:50:26;72045.84;;;-148.52;69.42
3254;BME280;1639;42.804;23.342;2022-08-19T02:52:51;72054.09;;;-148.52;69.52
3254;BME280;1639;42.804;23.342;2022-08-19T02:55:17;72068.59;;;-148.52;70.10
3254;BME280;1639;42.804;23.342;2022-08-19T02:57:42;72056.16;;;-148.52;69.53
3254;BME280;1639;42.804;23.342;2022-08-19T03:00:08;72029.28;;;-148.52;68.91
3254;BME280;1639;42.804;23.342;2022-08-19T03:02:38;72016.88;;;-148.52;68.69
3254;BME280;1639;42.804;23.342;2022-08-19T03:05:05;72021.03;;;-148.52;67.94
3254;BME280;1639;42.804;23.342;2022-08-19T03:07:30;72049.97;;;-148.52;68.92
3254;BME280;1639;42.804;23.342;2022-08-19T03:09:56;72054.09;;;-148.52;69.40
3254;BME280;1639;42.804;23.342;2022-08-19T03:12:21;72037.56;;;-148.52;69.22
3254;BME280;1639;42.804;23.342;2022-08-19T03:14:46;72043.78;;;-148.52;69.90
3254;BME280;1639;42.804;23.342;2022-08-19T03:17:12;72029.28;;;-148.52;69.31
3254;BME280;1639;42.804;23.342;2022-08-19T03:19:37;72043.78;;;-148.52;68.92
3254;BME280;1639;42.804;23.342;2022-08-19T03:22:03;72058.25;;;-148.52;69.59
3254;BME280;1639;42.804;23.342;2022-08-19T03:24:30;72064.44;;;-148.52;69.67
3254;BME280;1639;42.804;23.342;2022-08-19T03:26:55;72066.50;;;-148.52;70.05
3254;BME280;1639;42.804;23.342;2022-08-19T03:29:23;72070.66;;;-148.52;69.91
3254;BME280;1639;42.804;23.342;2022-08-19T03:31:48;72068.59;;;-148.52;69.66
3254;BME280;1639;42.804;23.342;2022-08-19T03:34:22;72049.97;;;-148.52;68.94
3254;BME280;1639;42.804;23.342;2022-08-19T03:36:51;72039.63;;;-148.52;68.69
3254;BME280;1639;42.804;23.342;2022-08-19T03:39:17;72016.88;;;-148.52;67.79
3254;BME280;1639;42.804;23.342;2022-08-19T03:41:44;72004.47;;;-148.52;67.35
3254;BME280;1639;42.804;23.342;2022-08-19T03:44:10;72004.47;;;-148.52;66.19
3254;BME280;1639;42.804;23.342;2022-08-19T03:46:35;72010.69;;;-148.52;65.83
3254;BME280;1639;42.804;23.342;2022-08-19T03:49:03;72033.44;;;-148.52;64.79
3254;BME280;1639;42.804;23.342;2022-08-19T03:51:38;72052.03;;;-148.52;64.88
3254;BME280;1639;42.804;23.342;2022-08-19T03:54:06;72076.84;;;-148.52;65.04
3254;BME280;1639;42.804;23.342;2022-08-19T03:56:35;72091.31;;;-148.52;66.06
3254;BME280;1639;42.804;23.342;2022-08-19T03:59:04;72099.59;;;-148.52;66.27
3254;BME280;1639;42.804;23.342;2022-08-19T04:01:30;72112.00;;;-148.52;66.96
3254;BME280;1639;42.804;23.342;2022-08-19T04:03:56;72109.94;;;-148.52;67.81
3254;BME280;1639;42.804;23.342;2022-08-19T04:06:28;72095.47;;;-148.52;67.12
3254;BME280;1639;42.804;23.342;2022-08-19T04:08:54;72093.41;;;-148.52;67.04
3254;BME280;1639;42.804;23.342;2022-08-19T04:11:24;72081.00;;;-148.52;66.75
3254;BME280;1639;42.804;23.342;2022-08-19T04:13:51;72058.25;;;-148.52;66.36
3254;BME280;1639;42.804;23.342;2022-08-19T04:16:19;72043.78;;;-148.52;66.04
3254;BME280;1639;42.804;23.342;2022-08-19T04:18:45;72054.09;;;-148.52;66.98
3254;BME280;1639;42.804;23.342;2022-08-19T04:21:20;72060.31;;;-148.52;67.73
3254;BME280;1639;42.804;23.342;2022-08-19T04:23:46;72049.97;;;-148.52;67.89
3254;BME280;1639;42.804;23.342;2022-08-19T04:26:22;72066.50;;;-148.52;68.75
3254;BME280;1639;42.804;23.342;2022-08-19T04:28:47;72114.06;;;-148.52;71.22
3254;BME280;1639;42.804;23.342;2022-08-19T04:31:25;72138.88;;;-148.52;73.26
3254;BME280;1639;42.804;23.342;2022-08-19T04:33:55;72116.13;;;-148.52;73.41
3254;BME280;1639;42.804;23.342;2022-08-19T04:36:25;72078.91;;;-148.52;72.16
3254;BME280;1639;42.804;23.342;2022-08-19T04:38:54;72047.91;;;-148.52;69.77
3254;BME280;1639;42.804;23.342;2022-08-19T04:41:20;72029.28;;;-148.52;69.00
3254;BME280;1639;42.804;23.342;2022-08-19T04:44:04;72021.03;;;-148.52;68.19
3254;BME280;1639;42.804;23.342;2022-08-19T04:46:30;71992.06;;;-148.52;67.00
3254;BME280;1639;42.804;23.342;2022-08-19T04:48:58;71981.75;;;-148.52;66.25
3254;BME280;1639;42.804;23.342;2022-08-19T04:51:24;71963.13;;;-148.52;66.13
3254;BME280;1639;42.804;23.342;2022-08-19T04:53:50;71930.03;;;-148.52;65.39
3254;BME280;1639;42.804;23.342;2022-08-19T04:56:18;71913.50;;;-148.52;64.72
3254;BME280;1639;42.804;23.342;2022-08-19T04:58:47;71886.63;;;-148.52;64.55
3254;BME280;1639;42.804;23.342;2022-08-19T05:01:21;71868.00;;;-148.52;63.62
3254;BME280;1639;42.804;23.342;2022-08-19T05:03:48;71847.34;;;-148.52;62.87
3254;BME280;1639;42.804;23.342;2022-08-19T05:06:16;71834.94;;;-148.52;61.56
3254;BME280;1639;42.804;23.342;2022-08-19T05:08:42;71824.59;;;-148.52;60.95
3254;BME280;1639;42.804;23.342;2022-08-19T05:11:14;71808.06;;;-148.52;61.30
3254;BME280;1639;42.804;23.342;2022-08-19T05:13:41;71808.06;;;-148.52;60.10
3254;BME280;1639;42.804;23.342;2022-08-19T05:16:09;71793.59;;;-148.52;59.94
3254;BME280;1639;42.804;23.342;2022-08-19T05:18:34;71806.00;;;-148.52;60.57
3254;BME280;1639;42.804;23.342;2022-08-19T05:21:19;71791.50;;;-148.52;60.28
3254;BME280;1639;42.804;23.342;2022-08-19T05:24:04;71808.06;;;-148.52;61.18
3254;BME280;1639;42.804;23.342;2022-08-19T05:26:40;71797.72;;;-148.52;60.84
3254;BME280;1639;42.804;23.342;2022-08-19T05:29:07;71787.38;;;-148.52;60.55
3254;BME280;1639;42.804;23.342;2022-08-19T05:31:34;71768.78;;;-148.52;59.00
3254;BME280;1639;42.804;23.342;2022-08-19T05:34:01;71756.38;;;-148.52;58.37
3254;BME280;1639;42.804;23.342;2022-08-19T05:36:28;71760.50;;;-148.52;58.58
3254;BME280;1639;42.804;23.342;2022-08-19T05:38:54;71748.09;;;-148.52;58.81
3254;BME280;1639;42.804;23.342;2022-08-19T05:41:21;71735.69;;;-148.52;58.92
3254;BME280;1639;42.804;23.342;2022-08-19T05:44:02;71696.41;;;-148.52;58.49
3254;BME280;1639;42.804;23.342;2022-08-19T05:46:31;71675.72;;;-148.52;57.56
3254;BME280;1639;42.804;23.342;2022-08-19T05:48:56;71663.31;;;-148.52;57.28
3254;BME280;1639;42.804;23.342;2022-08-19T05:51:23;71690.19;;;-148.52;57.44
3254;BME280;1639;42.804;23.342;2022-08-19T05:53:49;71694.34;;;-148.52;57.87
3254;BME280;1639;42.804;23.342;2022-08-19T05:56:16;71661.25;;;-148.52;56.75
3254;BME280;1639;42.804;23.342;2022-08-19T05:58:42;71650.91;;;-148.52;56.94
3254;BME280;1639;42.804;23.342;2022-08-19T06:01:13;71624.03;;;-148.52;56.60
3254;BME280;1639;42.804;23.342;2022-08-19T06:03:38;71613.69;;;-148.52;55.73
3254;BME280;1639;42.804;23.342;2022-08-19T06:06:05;71599.22;;;-148.52;56.20
3254;BME280;1639;42.804;23.342;2022-08-19T06:08:31;71617.84;;;-148.52;54.76
3254;BME280;1639;42.804;23.342;2022-08-19T06:10:57;71588.91;;;-148.52;54.25
3254;BME280;1639;42.804;23.342;2022-08-19T06:13:23;71559.94;;;-148.52;53.72
3254;BME280;1639;42.804;23.342;2022-08-19T06:15:49;71516.53;;;-148.52;54.02
3254;BME280;1639;42.804;23.342;2022-08-19T06:18:15;71528.94;;;-148.52;52.97
3254;BME280;1639;42.804;23.342;2022-08-19T06:20:42;71533.06;;;-148.52;52.95
3254;BME280;1639;42.804;23.342;2022-08-19T06:23:08;71531.00;;;-148.52;54.03
3254;BME280;1639;42.804;23.342;2022-08-19T06:25:35;71502.06;;;-148.52;53.27
3254;BME280;1639;42.804;23.342;2022-08-19T06:28:00;71460.72;;;-148.52;52.00
3254;BME280;1639;42.804;23.342;2022-08-19T06:30:26;71452.44;;;-148.52;51.20
3254;BME280;1639;42.804;23.342;2022-08-19T06:32:52;71427.63;;;-148.52;51.45
3254;BME280;1639;42.804;23.342;2022-08-19T06:35:17;71406.97;;;-148.52;51.10
3254;BME280;1639;42.804;23.342;2022-08-19T06:37:43;71380.09;;;-148.52;49.86
3254;BME280;1639;42.804;23.342;2022-08-19T06:40:10;71373.88;;;-148.52;49.72
3254;BME280;1639;42.804;23.342;2022-08-19T06:42:37;71355.28;;;-148.52;48.97
3254;BME280;1639;42.804;23.342;2022-08-19T06:45:04;71371.81;;;-148.52;50.86
3254;BME280;1639;42.804;23.342;2022-08-19T06:47:30;71386.28;;;-148.52;50.69
3254;BME280;1639;42.804;23.342;2022-08-19T06:49:59;71454.50;;;-148.52;51.62
3254;BME280;1639;42.804;23.342;2022-08-19T06:52:34;71433.84;;;-148.52;51.08
3254;BME280;1639;42.804;23.342;2022-08-19T06:55:01;71392.50;;;-148.52;52.51
3254;BME280;1639;42.804;23.342;2022-08-19T06:57:27;71338.75;;;-148.52;51.32
3254;BME280;1639;42.804;23.342;2022-08-19T06:59:58;71307.72;;;-148.52;50.16
3254;BME280;1639;42.804;23.342;2022-08-19T07:02:25;71295.31;;;-148.52;48.95
3254;BME280;1639;42.804;23.342;2022-08-19T07:04:52;71253.97;;;-148.52;49.36
3254;BME280;1639;42.804;23.342;2022-08-19T07:07:17;71214.69;;;-148.52;47.04
3254;BME280;1639;42.804;23.342;2022-08-19T07:09:43;71191.97;;;-148.52;46.31
3254;BME280;1639;42.804;23.342;2022-08-19T07:12:11;71231.22;;;-148.52;45.99
3254;BME280;1639;42.804;23.342;2022-08-19T07:14:39;71202.28;;;-148.52;47.40
3254;BME280;1639;42.804;23.342;2022-08-19T07:17:10;71198.16;;;-148.52;45.01
3254;BME280;1639;42.804;23.342;2022-08-19T07:19:36;71185.75;;;-148.52;45.61
3254;BME280;1639;42.804;23.342;2022-08-19T07:22:04;71156.81;;;-148.52;44.40
3254;BME280;1639;42.804;23.342;2022-08-19T07:24:30;71129.94;;;-148.52;44.91
3254;BME280;1639;42.804;23.342;2022-08-19T07:26:58;71090.66;;;-148.52;44.66
3254;BME280;1639;42.804;23.342;2022-08-19T07:29:27;71030.72;;;-148.52;44.46
3254;BME280;1639;42.804;23.342;2022-08-19T07:31:53;70985.22;;;-148.52;42.85
3254;BME280;1639;42.804;23.342;2022-08-19T07:34:22;70958.38;;;-148.52;42.88
3254;BME280;1639;42.804;23.342;2022-08-19T07:36:48;70921.16;;;-148.52;41.82
3254;BME280;1639;42.804;23.342;2022-08-19T07:39:18;70900.47;;;-148.52;41.23
3254;BME280;1639;42.804;23.342;2022-08-19T07:41:45;70910.81;;;-148.52;40.79
3254;BME280;1639;42.804;23.342;2022-08-19T07:44:11;70890.16;;;-148.52;40.45
3254;BME280;1639;42.804;23.342;2022-08-19T07:46:40;70906.69;;;-148.52;40.92
3254;BME280;1639;42.804;23.342;2022-08-19T07:49:07;70875.69;;;-148.52;41.35
3254;BME280;1639;42.804;23.342;2022-08-19T07:51:34;70826.06;;;-148.52;40.52
3254;BME280;1639;42.804;23.342;2022-08-19T07:54:00;70805.41;;;-148.52;38.84
3254;BME280;1639;42.804;23.342;2022-08-19T07:56:26;70838.47;;;-148.52;39.24
3254;BME280;1639;42.804;23.342;2022-08-19T07:58:52;70838.47;;;-148.52;39.66
3254;BME280;1639;42.804;23.342;2022-08-19T08:01:21;70817.78;;;-148.52;39.38
3254;BME280;1639;42.804;23.342;2022-08-19T08:03:48;70801.25;;;-148.52;38.39
3254;BME280;1639;42.804;23.342;2022-08-19T08:06:32;70768.19;;;-148.52;38.17
3254;BME280;1639;42.804;23.342;2022-08-19T08:09:21;70722.72;;;-148.52;38.47
3254;BME280;1639;42.804;23.342;2022-08-19T08:11:54;70681.38;;;-148.52;36.60
3254;BME280;1639;42.804;23.342;2022-08-19T08:14:37;70640.03;;;-148.52;35.81
3254;BME280;1639;42.804;23.342;2022-08-19T08:17:05;70621.44;;;-148.52;36.74
3254;BME280;1639;42.804;23.342;2022-08-19T08:19:31;70573.88;;;-148.52;35.93
3254;BME280;1639;42.804;23.342;2022-08-19T08:21:58;70569.75;;;-148.52;35.32
3254;BME280;1639;42.804;23.342;2022-08-19T08:24:26;70547.03;;;-148.52;34.41
3254;BME280;1639;42.804;23.342;2022-08-19T08:26:52;70524.28;;;-148.52;33.55
3254;BME280;1639;42.804;23.342;2022-08-19T08:29:17;70520.16;;;-148.52;34.27
3254;BME280;1639;42.804;23.342;2022-08-19T08:31:44;70487.06;;;-148.52;33.25
3254;BME280;1639;42.804;23.342;2022-08-19T08:34:11;70462.28;;;-148.52;33.85
3254;BME280;1639;42.804;23.342;2022-08-19T08:36:43;70441.59;;;-148.52;32.51
3254;BME280;1639;42.804;23.342;2022-08-19T08:39:14;70418.88;;;-148.52;33.10
3254;BME280;1639;42.804;23.342;2022-08-19T08:41:54;70396.13;;;-148.52;32.55
3254;BME280;1639;42.804;23.342;2022-08-19T08:47:24;70373.41;;;-148.52;31.75
3254;BME280;1639;42.804;23.342;2022-08-19T08:50:05;70352.72;;;-148.52;31.00
3254;BME280;1639;42.804;23.342;2022-08-19T08:52:37;70356.88;;;-148.52;32.69
3254;BME280;1639;42.804;23.342;2022-08-19T08:55:10;70334.13;;;-148.52;31.37
3254;BME280;1639;42.804;23.342;2022-08-19T09:00:22;70276.25;;;-148.52;30.19
3254;BME280;1639;42.804;23.342;2022-08-19T09:02:50;70243.19;;;-148.52;31.86
3254;BME280;1639;42.804;23.342;2022-08-19T09:05:16;70241.13;;;-148.52;29.88
3254;BME280;1639;42.804;23.342;2022-08-19T09:08:17;70214.25;;;-148.52;30.25
3254;BME280;1639;42.804;23.342;2022-08-19T09:10:53;70195.66;;;-148.52;29.80
3254;BME280;1639;42.804;23.342;2022-08-19T09:16:20;70156.38;;;-148.52;29.44
3254;BME280;1639;42.804;23.342;2022-08-19T09:18:52;70123.31;;;-148.52;29.15
3254;BME280;1639;42.804;23.342;2022-08-19T09:21:19;70094.38;;;-148.52;28.91
3254;BME280;1639;42.804;23.342;2022-08-19T09:23:46;70073.72;;;-148.52;28.23
3254;BME280;1639;42.804;23.342;2022-08-19T09:26:15;70077.84;;;-148.52;28.07
3254;BME280;1639;42.804;23.342;2022-08-19T09:28:42;70079.91;;;-148.52;28.47
3254;BME280;1639;42.804;23.342;2022-08-19T09:31:15;70063.38;;;-148.52;27.07
3254;BME280;1639;42.804;23.342;2022-08-19T09:33:41;70057.19;;;-148.52;27.45
3254;BME280;1639;42.804;23.342;2022-08-19T09:36:10;70040.66;;;-148.52;27.81
3254;BME280;1639;42.804;23.342;2022-08-19T09:38:37;70022.03;;;-148.52;27.27
3254;BME280;1639;42.804;23.342;2022-08-19T09:41:08;70028.25;;;-148.52;27.19
3254;BME280;1639;42.804;23.342;2022-08-19T09:43:34;70032.38;;;-148.52;26.86
3254;BME280;1639;42.804;23.342;2022-08-19T09:46:03;70015.84;;;-148.52;26.06
3254;BME280;1639;42.804;23.342;2022-08-19T09:48:31;69997.25;;;-148.52;26.80
3254;BME280;1639;42.804;23.342;2022-08-19T09:51:09;69986.91;;;-148.52;25.75
3254;BME280;1639;42.804;23.342;2022-08-19T09:53:36;70046.84;;;-148.52;26.62
3254;BME280;1639;42.804;23.342;2022-08-19T09:56:04;70015.84;;;-148.52;26.86
3254;BME280;1639;42.804;23.342;2022-08-19T09:58:31;70011.72;;;-148.52;26.90
3254;BME280;1639;42.804;23.342;2022-08-19T10:00:57;69993.13;;;-148.52;27.33
3254;BME280;1639;42.804;23.342;2022-08-19T10:03:24;69953.84;;;-148.52;26.94
3254;BME280;1639;42.804;23.342;2022-08-19T10:05:50;69939.38;;;-148.52;26.64
3254;BME280;1639;42.804;23.342;2022-08-19T10:08:20;69933.19;;;-148.52;26.10
3254;BME280;1639;42.804;23.342;2022-08-19T10:10:48;69920.78;;;-148.52;26.43
3254;BME280;1639;42.804;23.342;2022-08-19T10:13:15;69904.25;;;-148.52;27.02
3254;BME280;1639;42.804;23.342;2022-08-19T10:15:42;69906.31;;;-148.52;25.32
3254;BME280;1639;42.804;23.342;2022-08-19T10:18:08;69957.97;;;-148.52;25.95
3254;BME280;1639;42.804;23.342;2022-08-19T10:20:33;69947.66;;;-148.52;26.64
3254;BME280;1639;42.804;23.342;2022-08-19T10:23:01;69929.03;;;-148.52;26.66
3254;BME280;1639;42.804;23.342;2022-08-19T10:25:27;69895.97;;;-148.52;26.81
3254;BME280;1639;42.804;23.342;2022-08-19T10:27:52;69871.19;;;-148.52;25.87
3254;BME280;1639;42.804;23.342;2022-08-19T10:30:18;69856.72;;;-148.52;26.76
3254;BME280;1639;42.804;23.342;2022-08-19T10:32:44;69871.19;;;-148.52;25.91
3254;BME280;1639;42.804;23.342;2022-08-19T10:35:11;69852.59;;;-148.52;25.95
3254;BME280;1639;42.804;23.342;2022-08-19T10:37:37;69846.38;;;-148.52;25.67
3254;BME280;1639;42.804;23.342;2022-08-19T10:40:05;69850.53;;;-148.52;25.67
3254;BME280;1639;42.804;23.342;2022-08-19T10:42:32;69854.66;;;-148.52;25.92
3254;BME280;1639;42.804;23.342;2022-08-19T10:44:57;69867.06;;;-148.52;25.66
3254;BME280;1639;42.804;23.342;2022-08-19T10:47:23;69879.44;;;-148.52;25.52
3254;BME280;1639;42.804;23.342;2022-08-19T10:49:48;69887.72;;;-148.52;25.56
3254;BME280;1639;42.804;23.342;2022-08-19T10:52:52;69867.06;;;-148.52;26.29
3254;BME280;1639;42.804;23.342;2022-08-19T10:55:23;69844.31;;;-148.52;25.26
3254;BME280;1639;42.804;23.342;2022-08-19T10:58:15;69829.84;;;-148.52;25.79
3254;BME280;1639;42.804;23.342;2022-08-19T11:00:41;69821.59;;;-148.52;25.32
3254;BME280;1639;42.804;23.342;2022-08-19T11:03:08;69833.97;;;-148.52;25.95
3254;BME280;1639;42.804;23.342;2022-08-19T11:05:34;69831.91;;;-148.52;25.24
3254;BME280;1639;42.804;23.342;2022-08-19T11:07:59;69809.19;;;-148.52;25.40
3254;BME280;1639;42.804;23.342;2022-08-19T11:10:24;69805.06;;;-148.52;25.76
3254;BME280;1639;42.804;23.342;2022-08-19T11:12:50;69819.53;;;-148.52;24.69
3254;BME280;1639;42.804;23.342;2022-08-19T11:15:20;69805.06;;;-148.52;25.96
3254;BME280;1639;42.804;23.342;2022-08-19T11:17:45;69827.78;;;-148.52;25.18
3254;BME280;1639;42.804;23.342;2022-08-19T11:20:13;69869.13;;;-148.52;25.04
3254;BME280;1639;42.804;23.342;2022-08-19T11:22:40;69850.53;;;-148.52;26.28
3254;BME280;1639;42.804;23.342;2022-08-19T11:25:06;69842.25;;;-148.52;24.79
3254;BME280;1639;42.804;23.342;2022-08-19T11:27:32;69813.31;;;-148.52;25.12
3254;BME280;1639;42.804;23.342;2022-08-19T11:29:58;69800.91;;;-148.52;25.38
3254;BME280;1639;42.804;23.342;2022-08-19T11:32:24;69776.13;;;-148.52;25.57
3254;BME280;1639;42.804;23.342;2022-08-19T11:34:49;69786.44;;;-148.52;25.36
3254;BME280;1639;42.804;23.342;2022-08-19T11:37:15;69817.44;;;-148.52;24.89
3254;BME280;1639;42.804;23.342;2022-08-19T11:39:41;69809.19;;;-148.52;24.76
3254;BME280;1639;42.804;23.342;2022-08-19T11:42:06;69821.59;;;-148.52;25.23
3254;BME280;1639;42.804;23.342;2022-08-19T11:44:51;69858.78;;;-148.52;25.40
3254;BME280;1639;42.804;23.342;2022-08-19T11:47:16;69898.06;;;-148.52;25.12
3254;BME280;1639;42.804;23.342;2022-08-19T11:49:42;69906.31;;;-148.52;25.63
3254;BME280;1639;42.804;23.342;2022-08-19T11:52:07;69895.97;;;-148.52;25.34
3254;BME280;1639;42.804;23.342;2022-08-19T11:54:33;69891.84;;;-148.52;25.45
3254;BME280;1639;42.804;23.342;2022-08-19T11:56:58;69902.19;;;-148.52;25.48
3254;BME280;1639;42.804;23.342;2022-08-19T11:59:24;69891.84;;;-148.52;26.12
3254;BME280;1639;42.804;23.342;2022-08-19T12:01:51;69844.31;;;-148.52;26.53
3254;BME280;1639;42.804;23.342;2022-08-19T12:04:17;69813.31;;;-148.52;25.78
3254;BME280;1639;42.804;23.342;2022-08-19T12:06:43;69788.53;;;-148.52;25.76
3254;BME280;1639;42.804;23.342;2022-08-19T12:09:10;69780.25;;;-148.52;24.85
3254;BME280;1639;42.804;23.342;2022-08-19T12:11:36;69776.13;;;-148.52;25.52
3254;BME280;1639;42.804;23.342;2022-08-19T12:14:02;69769.91;;;-148.52;24.69
3254;BME280;1639;42.804;23.342;2022-08-19T12:16:29;69767.84;;;-148.52;24.83
3254;BME280;1639;42.804;23.342;2022-08-19T12:18:57;69792.66;;;-148.52;24.75
3254;BME280;1639;42.804;23.342;2022-08-19T12:21:26;69796.78;;;-148.52;24.88
3254;BME280;1639;42.804;23.342;2022-08-19T12:23:55;69784.38;;;-148.52;25.04
3254;BME280;1639;42.804;23.342;2022-08-19T12:26:21;69776.13;;;-148.52;25.01
3254;BME280;1639;42.804;23.342;2022-08-19T12:28:46;69751.31;;;-148.52;25.84
3254;BME280;1639;42.804;23.342;2022-08-19T12:31:13;69722.38;;;-148.52;25.87
3254;BME280;1639;42.804;23.342;2022-08-19T12:33:39;69722.38;;;-148.52;24.75
3254;BME280;1639;42.804;23.342;2022-08-19T12:36:08;69726.53;;;-148.52;24.86
3254;BME280;1639;42.804;23.342;2022-08-19T12:38:35;69755.47;;;-148.52;24.79
3254;BME280;1639;42.804;23.342;2022-08-19T12:41:00;69778.19;;;-148.52;25.49
3254;BME280;1639;42.804;23.342;2022-08-19T12:43:28;69759.59;;;-148.52;24.54
3254;BME280;1639;42.804;23.342;2022-08-19T12:45:55;69757.53;;;-148.52;25.47
3254;BME280;1639;42.804;23.342;2022-08-19T12:48:20;69772.00;;;-148.52;24.91
3254;BME280;1639;42.804;23.342;2022-08-19T12:50:46;69803.00;;;-148.52;24.78
3254;BME280;1639;42.804;23.342;2022-08-19T12:53:12;69823.66;;;-148.52;24.91
3254;BME280;1639;42.804;23.342;2022-08-19T12:55:37;69825.72;;;-148.52;24.90
3254;BME280;1639;42.804;23.342;2022-08-19T12:58:03;69825.72;;;-148.52;24.93
3254;BME280;1639;42.804;23.342;2022-08-19T13:00:29;69827.78;;;-148.52;24.86
3254;BME280;1639;42.804;23.342;2022-08-19T13:02:56;69833.97;;;-148.52;25.00